Time;durP1;ratioP1;P1;durP2;ratioP2;P2;SDS_P1;SDS_P2;PMS_P1;PMS_P2;Temp;Humidity;BMP_temperature;BMP_pressure;BME280_temperature;BME280_humidity;BME280_pressure;Samples;Min_cycle;Max_cycle;Signal;HPM_P1;HPM_P2
2021/11/30 00:01:18;;;;;;;34.60;17.65;;;;;;;2.16;86.92;99468.94;5091408;28;20302;-66
2021/11/30 00:03:44;;;;;;;30.05;17.48;;;;;;;1.99;87.84;99463.94;5091341;28;20119;-66
2021/11/30 00:06:10;;;;;;;30.40;17.50;;;;;;;2.00;87.71;99470.09;5091151;28;20422;-66
2021/11/30 00:08:37;;;;;;;35.28;19.40;;;;;;;2.05;88.09;99494.41;5091285;28;20024;-66
2021/11/30 00:11:05;;;;;;;34.67;18.58;;;;;;;2.01;88.74;99499.06;5091180;28;20024;-67
2021/11/30 00:13:33;;;;;;;32.80;19.58;;;;;;;2.07;88.06;99488.06;5091101;28;20028;-66
2021/11/30 00:15:59;;;;;;;32.65;17.60;;;;;;;2.08;87.86;99504.78;5091157;28;20745;-65
2021/11/30 00:18:29;;;;;;;32.25;18.48;;;;;;;1.97;88.23;99510.78;5072857;28;20089;-65
2021/11/30 00:20:55;;;;;;;32.20;17.85;;;;;;;2.08;88.19;99518.84;5090912;28;20028;-65
2021/11/30 00:23:20;;;;;;;31.23;18.02;;;;;;;2.02;87.93;99506.03;5073090;28;20494;-65
2021/11/30 00:25:46;;;;;;;33.30;18.55;;;;;;;2.01;89.00;99504.34;5072560;28;20032;-65
2021/11/30 00:28:12;;;;;;;34.33;18.85;;;;;;;2.02;89.18;99524.53;5090190;28;20507;-67
2021/11/30 00:30:38;;;;;;;31.40;17.75;;;;;;;2.06;89.10;99518.09;5091034;28;20058;-66
2021/11/30 00:33:05;;;;;;;41.45;18.90;;;;;;;2.03;88.61;99526.22;5072703;28;20537;-66
2021/11/30 00:35:32;;;;;;;33.53;18.80;;;;;;;1.97;89.57;99528.44;5090778;28;20024;-67
2021/11/30 00:37:58;;;;;;;35.17;18.60;;;;;;;2.12;88.89;99538.00;5090882;28;20429;-66
2021/11/30 00:40:25;;;;;;;32.88;18.27;;;;;;;2.00;89.41;99531.72;5090961;28;20028;-66
2021/11/30 00:42:51;;;;;;;36.40;19.40;;;;;;;2.00;89.39;99552.88;5090963;28;20111;-66
2021/11/30 00:45:19;;;;;;;34.70;18.75;;;;;;;2.04;90.02;99557.00;5090925;28;20039;-66
2021/11/30 00:47:55;;;;;;;34.17;18.05;;;;;;;2.02;89.61;99548.34;5090740;28;20146;-66
2021/11/30 00:50:23;;;;;;;34.67;18.75;;;;;;;2.00;89.96;99552.88;5090736;28;20048;-66
2021/11/30 00:52:49;;;;;;;33.08;18.00;;;;;;;1.93;90.13;99546.28;5072618;28;20024;-66
2021/11/30 00:55:14;;;;;;;34.08;18.55;;;;;;;1.92;90.64;99555.19;5090499;28;20101;-65
2021/11/30 00:57:40;;;;;;;33.80;19.75;;;;;;;1.96;90.64;99554.03;5090654;28;20031;-66
2021/11/30 01:00:09;;;;;;;33.60;19.63;;;;;;;1.95;90.85;99556.78;5072452;28;20561;-66
2021/11/30 01:02:35;;;;;;;35.15;18.67;;;;;;;1.93;91.47;99558.66;5090404;28;20039;-64
2021/11/30 01:05:01;;;;;;;33.25;17.42;;;;;;;1.90;91.51;99553.56;5090558;28;20036;-65
2021/11/30 01:07:27;;;;;;;33.20;18.50;;;;;;;1.98;91.21;99567.16;5090765;28;20490;-66
2021/11/30 01:09:52;;;;;;;33.50;18.10;;;;;;;1.95;91.36;99572.63;5090773;28;20043;-66
2021/11/30 01:12:18;;;;;;;34.80;19.05;;;;;;;1.88;92.40;99571.34;5090456;28;20024;-65
2021/11/30 01:14:43;;;;;;;35.35;18.67;;;;;;;1.87;92.23;99581.06;5090505;28;20036;-65
2021/11/30 01:17:09;;;;;;;33.53;18.67;;;;;;;1.82;92.40;99591.09;5090442;28;20162;-66
2021/11/30 01:19:35;;;;;;;35.03;19.73;;;;;;;1.93;92.05;99591.22;5087938;28;20039;-64
2021/11/30 01:22:00;;;;;;;36.00;18.75;;;;;;;1.93;91.98;99590.38;5090368;28;20094;-65
2021/11/30 01:24:26;;;;;;;33.47;18.63;;;;;;;1.91;91.87;99587.00;5090676;28;20434;-65
2021/11/30 01:26:51;;;;;;;36.53;19.63;;;;;;;1.79;92.08;99590.41;5090242;28;20047;-65
2021/11/30 01:29:17;;;;;;;34.85;18.40;;;;;;;1.81;92.88;99602.59;5090297;28;20058;-66
2021/11/30 01:31:42;;;;;;;31.00;18.67;;;;;;;1.86;93.17;99605.81;5090357;28;20024;-66
2021/11/30 01:34:08;;;;;;;30.92;18.00;;;;;;;1.76;93.23;99595.91;5090318;28;20456;-66
2021/11/30 01:36:33;;;;;;;33.30;17.73;;;;;;;1.78;93.55;99608.06;5090285;28;20036;-64
2021/11/30 01:39:03;;;;;;;30.83;17.73;;;;;;;1.80;93.32;99616.75;5092903;28;20032;-66
2021/11/30 01:41:32;;;;;;;32.60;18.23;;;;;;;1.79;92.96;99604.50;5093935;28;20028;-65
2021/11/30 01:44:00;;;;;;;29.58;17.02;;;;;;;1.82;92.63;99593.72;5094236;28;20070;-66
2021/11/30 01:46:28;;;;;;;31.02;17.35;;;;;;;1.88;92.31;99613.63;5093869;28;20609;-66
2021/11/30 01:51:58;;;;;;;;;;;;;;;1.73;92.55;99612.81;5031866;28;20036;-66
2021/11/30 01:54:24;;;;;;;32.72;17.45;;;;;;;1.67;93.72;99610.56;5031241;28;20397;-65
2021/11/30 01:56:49;;;;;;;31.52;18.77;;;;;;;1.65;93.84;99620.34;5059618;28;20166;-65
2021/11/30 01:59:15;;;;;;;31.95;17.58;;;;;;;1.64;93.76;99620.44;5075634;28;20035;-65
2021/11/30 02:01:40;;;;;;;30.13;17.70;;;;;;;1.64;93.33;99613.38;5075559;28;20032;-66
2021/11/30 02:04:06;;;;;;;31.17;17.60;;;;;;;1.64;93.09;99613.38;5075642;28;20380;-65
2021/11/30 02:06:32;;;;;;;35.83;17.85;;;;;;;1.62;93.07;99611.78;5075380;28;20380;-65
2021/11/30 02:08:57;;;;;;;31.42;17.60;;;;;;;1.60;93.40;99613.66;5093711;28;20031;-64
2021/11/30 02:11:24;;;;;;;31.27;17.52;;;;;;;1.61;93.42;99618.03;5093321;28;20026;-65
2021/11/30 02:13:50;;;;;;;30.25;17.88;;;;;;;1.59;93.25;99622.53;5075068;28;20048;-65
2021/11/30 02:16:19;;;;;;;34.58;17.73;;;;;;;1.51;93.41;99624.81;5093261;28;20066;-65
2021/11/30 02:18:45;;;;;;;30.98;18.02;;;;;;;1.52;93.58;99626.53;5097301;28;20072;-65
2021/11/30 02:21:12;;;;;;;28.02;17.17;;;;;;;1.39;93.87;99620.31;5099409;28;20405;-65
2021/11/30 02:23:42;;;;;;;30.80;17.02;;;;;;;1.53;93.71;99630.84;5098570;28;20368;-65
2021/11/30 02:26:11;;;;;;;31.27;17.02;;;;;;;1.50;94.22;99631.03;5095374;28;20059;-65
2021/11/30 02:28:40;;;;;;;31.30;16.63;;;;;;;1.49;94.02;99637.28;5097659;28;20059;-65
2021/11/30 02:31:07;;;;;;;25.48;15.48;;;;;;;1.30;94.68;99621.72;5093902;28;20024;-65
2021/11/30 02:33:33;;;;;;;27.90;16.02;;;;;;;1.43;94.79;99642.94;5102625;28;20027;-65
2021/11/30 02:35:59;;;;;;;32.25;16.83;;;;;;;1.39;95.33;99642.25;5093085;28;20040;-65
2021/11/30 02:38:24;;;;;;;30.80;17.05;;;;;;;1.32;95.59;99645.41;5094691;28;20020;-68
2021/11/30 02:40:50;;;;;;;29.23;15.15;;;;;;;1.35;95.54;99648.69;5097104;28;20024;-65
2021/11/30 02:43:15;;;;;;;26.95;15.57;;;;;;;1.28;95.85;99644.72;5076107;28;20032;-64
2021/11/30 02:45:41;;;;;;;27.05;16.40;;;;;;;1.26;96.47;99645.75;5097531;28;20032;-65
2021/11/30 02:48:06;;;;;;;29.92;15.23;;;;;;;1.30;96.42;99652.56;5074440;28;20093;-66
2021/11/30 02:50:39;;;;;;;28.25;15.00;;;;;;;1.27;96.57;99658.00;5098190;28;20027;-66
2021/11/30 02:53:06;;;;;;;24.00;14.37;;;;;;;1.22;96.49;99663.56;5098745;28;20039;-66
2021/11/30 02:55:33;;;;;;;25.38;15.18;;;;;;;1.24;96.62;99668.75;5094138;28;20059;-67
2021/11/30 02:57:58;;;;;;;26.42;15.27;;;;;;;1.31;96.18;99670.09;5093553;28;20408;-68
2021/11/30 03:00:24;;;;;;;26.58;15.07;;;;;;;1.31;96.03;99662.16;5095061;28;20027;-67
2021/11/30 03:02:50;;;;;;;25.08;14.43;;;;;;;1.26;95.28;99646.59;5095091;28;20483;-68
2021/11/30 03:05:15;;;;;;;22.38;13.00;;;;;;;1.43;95.51;99662.28;5077581;28;20016;-67
2021/11/30 03:07:41;;;;;;;21.55;12.63;;;;;;;1.33;95.46;99653.22;5095075;28;20027;-67
2021/11/30 03:10:09;;;;;;;23.50;14.15;;;;;;;1.41;96.26;99665.94;5095361;28;20492;-67
2021/11/30 03:12:36;;;;;;;22.90;13.52;;;;;;;1.33;96.13;99663.78;5094151;28;20447;-68
2021/11/30 03:15:17;;;;;;;22.35;12.57;;;;;;;1.38;96.23;99655.56;5095542;28;20051;-69
2021/11/30 03:17:44;;;;;;;20.45;11.90;;;;;;;1.33;96.04;99657.66;5094246;28;20447;-68
2021/11/30 03:20:10;;;;;;;20.17;11.75;;;;;;;1.36;96.11;99657.47;5093753;28;20042;-68
2021/11/30 03:22:36;;;;;;;20.63;12.93;;;;;;;1.40;96.29;99662.47;5091479;28;20028;-68
2021/11/30 03:25:02;;;;;;;21.80;12.40;;;;;;;1.25;96.67;99658.09;5073484;28;20133;-69
2021/11/30 03:27:28;;;;;;;20.33;11.77;;;;;;;1.22;97.36;99660.94;5091502;28;20139;-68
2021/11/30 03:29:54;;;;;;;17.25;11.07;;;;;;;1.17;97.34;99656.88;5091451;28;20036;-67
2021/11/30 03:35:00;;;;;;;19.23;11.27;;;;;;;1.11;97.99;99666.03;5091444;28;20396;-68
2021/11/30 03:37:29;;;;;;;19.35;10.75;;;;;;;1.28;97.12;99675.56;5091166;28;20028;-68
2021/11/30 03:39:57;;;;;;;19.40;10.75;;;;;;;1.24;97.49;99672.28;5088789;28;20036;-68
2021/11/30 03:42:22;;;;;;;17.67;10.02;;;;;;;1.25;97.35;99673.09;5091106;28;20019;-68
2021/11/30 03:44:48;;;;;;;16.60;10.80;;;;;;;1.34;96.58;99681.34;5090909;28;20036;-68
2021/11/30 03:47:13;;;;;;;15.48;9.80;;;;;;;1.27;97.09;99677.38;5090877;28;20039;-68
2021/11/30 03:49:39;;;;;;;17.85;10.60;;;;;;;1.29;97.05;99677.28;5072888;28;20020;-68
2021/11/30 03:52:05;;;;;;;17.45;10.38;;;;;;;1.30;96.65;99687.75;5091152;28;20054;-68
2021/11/30 03:54:30;;;;;;;17.23;9.77;;;;;;;1.33;96.42;99681.41;5090810;28;20038;-68
2021/11/30 03:56:56;;;;;;;19.35;10.50;;;;;;;1.34;96.24;99689.25;5091003;28;20027;-68
2021/11/30 03:59:22;;;;;;;14.52;8.93;;;;;;;1.35;95.86;99682.19;5090929;28;20052;-68
2021/11/30 04:01:48;;;;;;;15.13;10.00;;;;;;;1.36;95.90;99695.28;5090495;28;20728;-67
2021/11/30 04:04:25;;;;;;;15.25;9.55;;;;;;;1.38;95.73;99698.69;5072692;28;20019;-68
2021/11/30 04:06:53;;;;;;;15.98;8.35;;;;;;;1.36;95.53;99707.66;5090681;28;20098;-68
2021/11/30 04:09:20;;;;;;;15.85;9.07;;;;;;;1.36;95.58;99692.63;5090505;28;20034;-69
2021/11/30 04:11:45;;;;;;;13.30;8.63;;;;;;;1.32;95.81;99692.94;5090682;28;20027;-68
2021/11/30 04:14:11;;;;;;;13.70;8.27;;;;;;;1.28;94.84;99668.50;5088569;28;20089;-68
2021/11/30 04:16:38;;;;;;;15.55;8.13;;;;;;;1.32;95.10;99688.47;5090543;28;20043;-68
2021/11/30 04:19:03;;;;;;;12.70;8.07;;;;;;;1.32;95.55;99706.97;5090651;28;20085;-68
2021/11/30 04:21:29;;;;;;;14.80;8.18;;;;;;;1.30;94.89;99698.31;5072230;28;20036;-68
2021/11/30 04:23:55;;;;;;;11.90;7.15;;;;;;;1.36;94.25;99699.72;5090589;28;20434;-68
2021/11/30 04:26:21;;;;;;;13.02;8.13;;;;;;;1.42;93.93;99700.19;5090422;28;20102;-68
2021/11/30 04:28:47;;;;;;;12.18;7.40;;;;;;;1.37;94.27;99709.34;5089987;28;20123;-69
2021/11/30 04:31:13;;;;;;;14.82;7.93;;;;;;;1.34;94.27;99713.03;5090355;28;20616;-68
2021/11/30 04:33:39;;;;;;;15.27;6.57;;;;;;;1.23;94.05;99690.84;5072339;28;20031;-67
2021/11/30 04:36:09;;;;;;;10.52;6.78;;;;;;;1.32;93.56;99700.88;5090587;28;20056;-68
2021/11/30 04:38:35;;;;;;;12.10;6.82;;;;;;;1.37;93.28;99709.34;5090412;28;20036;-68
2021/11/30 04:41:02;;;;;;;9.70;6.38;;;;;;;1.37;92.74;99707.56;5090185;28;20024;-69
2021/11/30 04:43:37;;;;;;;8.95;6.32;;;;;;;1.37;92.83;99697.00;5090129;28;20020;-67
2021/11/30 04:48:40;;;;;;;11.23;6.05;;;;;;;1.38;92.82;99698.69;5091278;28;20473;-68
2021/11/30 04:51:10;;;;;;;12.23;6.32;;;;;;;1.45;91.62;99689.44;5091142;28;20024;-68
2021/11/30 04:53:35;;;;;;;9.02;5.25;;;;;;;1.45;91.71;99709.75;5091094;28;20036;-67
2021/11/30 04:56:02;;;;;;;15.23;6.20;;;;;;;1.46;90.75;99698.22;5094055;28;20028;-68
2021/11/30 04:58:27;;;;;;;9.40;6.32;;;;;;;1.60;90.45;99717.59;5093667;28;20024;-68
2021/11/30 05:00:53;;;;;;;9.02;6.05;;;;;;;1.66;89.38;99698.72;5094397;28;20054;-68
2021/11/30 05:03:18;;;;;;;9.30;5.15;;;;;;;1.61;90.14;99711.34;5091405;28;20024;-68
2021/11/30 05:05:44;;;;;;;10.90;5.78;;;;;;;1.60;90.35;99711.44;5094702;28;20055;-69
2021/11/30 05:08:10;;;;;;;9.57;6.05;;;;;;;1.54;90.51;99702.09;5093459;28;20103;-68
2021/11/30 05:10:36;;;;;;;10.15;6.80;;;;;;;1.58;90.16;99703.59;5094138;28;20092;-68
2021/11/30 05:13:02;;;;;;;9.65;5.97;;;;;;;1.64;88.95;99715.59;5091458;28;20527;-68
2021/11/30 05:15:28;;;;;;;8.82;5.30;;;;;;;1.67;88.68;99721.53;5094989;28;20039;-68
2021/11/30 05:17:53;;;;;;;11.07;5.38;;;;;;;1.66;88.45;99724.28;5094890;28;20518;-69
2021/11/30 05:20:19;;;;;;;11.93;5.18;;;;;;;1.81;87.79;99724.19;5094771;28;20032;-69
2021/11/30 05:22:44;;;;;;;9.20;5.20;;;;;;;1.79;87.82;99718.16;5094665;28;20027;-68
2021/11/30 05:25:10;;;;;;;10.02;5.50;;;;;;;1.74;87.87;99717.56;5094759;28;20044;-67
2021/11/30 05:27:40;;;;;;;8.68;6.30;;;;;;;1.71;87.84;99724.88;5076486;28;20055;-68
2021/11/30 05:30:09;;;;;;;8.65;5.65;;;;;;;1.69;88.17;99727.59;5094766;28;20102;-68
2021/11/30 05:32:34;;;;;;;10.30;5.93;;;;;;;1.75;87.92;99740.44;5094619;28;20468;-68
2021/11/30 05:35:00;;;;;;;11.43;6.45;;;;;;;1.63;88.73;99727.97;5076462;28;20081;-68
2021/11/30 05:37:25;;;;;;;11.57;6.78;;;;;;;1.74;87.44;99732.59;5094447;28;20050;-69
2021/11/30 05:39:51;;;;;;;10.45;6.25;;;;;;;1.73;87.11;99734.38;5094186;28;20040;-69
2021/11/30 05:42:16;;;;;;;11.95;6.70;;;;;;;1.74;87.16;99741.38;5094549;28;20026;-68
2021/11/30 05:44:41;;;;;;;9.00;6.32;;;;;;;1.70;87.77;99736.34;5094367;28;20032;-68
2021/11/30 05:47:07;;;;;;;10.00;6.13;;;;;;;1.78;87.16;99737.59;5094596;28;20039;-69
2021/11/30 05:49:32;;;;;;;10.85;6.85;;;;;;;1.73;87.44;99741.47;5070912;28;20038;-69
2021/11/30 05:52:00;;;;;;;13.32;7.15;;;;;;;1.67;87.63;99737.41;5086569;28;20020;-66
2021/11/30 05:54:25;;;;;;;12.70;6.15;;;;;;;1.72;87.40;99748.56;5071250;28;20078;-69
2021/11/30 05:56:51;;;;;;;9.40;6.32;;;;;;;1.71;87.16;99746.00;5093549;28;20487;-67
2021/11/30 05:59:19;;;;;;;10.75;6.25;;;;;;;1.74;87.38;99749.28;5093899;28;20028;-67
2021/11/30 06:01:53;;;;;;;9.18;5.55;;;;;;;1.83;86.44;99748.75;5075002;28;20417;-68
2021/11/30 06:04:19;;;;;;;8.55;5.47;;;;;;;1.84;86.06;99753.06;5075467;28;20367;-69
2021/11/30 06:06:45;;;;;;;11.98;5.95;;;;;;;1.83;86.05;99755.81;5074538;28;20036;-68
2021/11/30 06:09:10;;;;;;;9.25;5.75;;;;;;;1.83;86.00;99766.38;5093538;28;20089;-68
2021/11/30 06:11:36;;;;;;;10.10;5.65;;;;;;;1.68;86.84;99751.47;5090910;28;20174;-68
2021/11/30 06:14:02;;;;;;;10.70;6.35;;;;;;;1.73;86.94;99779.31;5093031;28;20569;-68
2021/11/30 06:16:28;;;;;;;10.25;6.10;;;;;;;1.77;86.26;99766.75;5092667;28;20102;-67
2021/11/30 06:18:54;;;;;;;8.63;5.72;;;;;;;1.71;86.73;99765.34;5074863;28;20130;-69
2021/11/30 06:21:19;;;;;;;11.77;6.15;;;;;;;1.71;87.39;99770.63;5092769;28;20437;-68
2021/11/30 06:23:48;;;;;;;12.30;6.97;;;;;;;1.71;88.04;99786.47;5092283;28;20039;-69
2021/11/30 06:26:16;;;;;;;13.18;6.70;;;;;;;1.74;86.96;99778.38;5092156;28;20038;-68
2021/11/30 06:28:42;;;;;;;12.05;6.18;;;;;;;1.66;87.88;99780.63;5093245;28;20048;-69
2021/11/30 06:31:08;;;;;;;12.57;6.13;;;;;;;1.79;87.26;99791.31;5076243;28;20038;-68
2021/11/30 06:33:34;;;;;;;11.68;6.63;;;;;;;1.75;87.32;99792.44;5093817;28;20028;-68
2021/11/30 06:36:00;;;;;;;13.07;7.20;;;;;;;1.77;87.06;99791.41;5093803;28;20031;-68
2021/11/30 06:38:26;;;;;;;12.63;6.68;;;;;;;1.70;87.67;99789.22;5075439;28;20031;-69
2021/11/30 06:40:52;;;;;;;13.40;6.53;;;;;;;1.71;88.01;99790.94;5093452;28;20392;-68
2021/11/30 06:43:18;;;;;;;11.02;6.35;;;;;;;1.67;88.10;99790.25;5075384;28;20020;-69
2021/11/30 06:45:43;;;;;;;8.43;6.10;;;;;;;1.72;88.19;99782.91;5075214;28;20115;-69
2021/11/30 06:48:09;;;;;;;10.80;6.30;;;;;;;1.87;86.46;99784.59;5093560;28;20032;-68
2021/11/30 06:50:35;;;;;;;10.45;6.38;;;;;;;1.98;86.54;99794.53;5093294;28;20039;-68
2021/11/30 06:53:00;;;;;;;8.93;6.20;;;;;;;2.02;85.73;99796.91;5093355;28;20035;-68
2021/11/30 06:55:26;;;;;;;10.98;6.90;;;;;;;1.99;86.22;99802.38;5093273;28;20036;-67
2021/11/30 06:57:52;;;;;;;11.85;6.82;;;;;;;1.90;87.35;99796.78;5093340;28;20039;-68
2021/11/30 07:00:21;;;;;;;10.48;6.22;;;;;;;1.90;86.82;99808.22;5093153;28;20024;-69
2021/11/30 07:02:48;;;;;;;11.35;6.88;;;;;;;1.91;87.15;99803.78;5090973;28;20056;-68
2021/11/30 07:10:52;;;;;;;16.42;8.27;;;;;;;2.18;85.08;99813.53;5065478;28;20119;-69
2021/11/30 07:13:30;;;;;;;14.80;7.13;;;;;;;2.15;85.43;99818.16;5093082;28;20039;-68
2021/11/30 07:16:06;;;;;;;11.35;7.30;;;;;;;2.25;85.05;99821.91;5092899;28;20028;-68
2021/11/30 07:18:33;;;;;;;14.90;7.25;;;;;;;2.23;84.89;99819.38;5074458;28;20028;-67
2021/11/30 07:21:01;;;;;;;13.38;6.93;;;;;;;2.38;84.58;99827.31;5092549;28;20047;-68
2021/11/30 07:23:27;;;;;;;9.23;5.97;;;;;;;2.35;84.66;99823.91;5092709;28;20074;-69
2021/11/30 07:25:53;;;;;;;12.23;7.00;;;;;;;2.24;85.71;99823.72;5074174;28;20135;-68
2021/11/30 07:28:22;;;;;;;11.30;6.82;;;;;;;2.21;85.94;99815.97;5092051;28;20143;-68
2021/11/30 07:30:49;;;;;;;13.35;7.72;;;;;;;2.35;84.63;99830.97;5092222;28;20026;-68
2021/11/30 07:33:14;;;;;;;13.25;7.85;;;;;;;2.45;84.03;99836.56;5092486;28;20020;-69
2021/11/30 07:35:40;;;;;;;13.82;8.05;;;;;;;2.48;84.16;99834.56;5092338;28;20035;-68
2021/11/30 07:38:06;;;;;;;16.00;8.02;;;;;;;2.53;84.23;99840.44;5092681;28;20023;-68
2021/11/30 07:40:32;;;;;;;13.30;7.63;;;;;;;2.53;84.01;99835.13;5091859;28;21019;-68
2021/11/30 07:42:57;;;;;;;14.50;8.35;;;;;;;2.60;83.65;99847.03;5092245;28;20035;-67
2021/11/30 07:45:23;;;;;;;14.10;8.63;;;;;;;2.53;83.97;99847.50;5092065;28;20039;-67
2021/11/30 07:47:48;;;;;;;12.45;7.68;;;;;;;2.58;84.21;99848.09;5064019;28;20441;-68
2021/11/30 07:50:14;;;;;;;15.02;8.23;;;;;;;2.70;82.51;99858.75;5091657;28;20111;-69
2021/11/30 07:52:41;;;;;;;14.15;8.02;;;;;;;2.81;81.36;99861.56;5073862;28;20373;-68
2021/11/30 07:55:09;;;;;;;17.13;9.05;;;;;;;2.91;81.08;99862.69;5091702;28;20032;-69
2021/11/30 07:57:34;;;;;;;14.70;9.10;;;;;;;2.91;81.61;99862.69;5089623;28;20032;-67
2021/11/30 08:00:01;;;;;;;14.77;8.63;;;;;;;2.84;82.17;99853.41;5091750;28;20028;-67
2021/11/30 08:02:26;;;;;;;16.52;8.38;;;;;;;2.90;82.55;99866.25;5091270;28;20032;-67
2021/11/30 08:04:52;;;;;;;13.63;7.90;;;;;;;2.85;82.62;99864.88;5091854;28;20121;-68
2021/11/30 08:07:18;;;;;;;12.10;8.05;;;;;;;2.87;82.98;99877.03;5091740;28;20028;-68
2021/11/30 08:09:46;;;;;;;12.32;7.88;;;;;;;2.91;82.14;99859.19;5073096;28;20122;-68
2021/11/30 08:12:13;;;;;;;14.38;7.60;;;;;;;3.14;79.65;99871.78;5091715;28;20464;-67
2021/11/30 08:14:38;;;;;;;14.25;8.10;;;;;;;3.15;80.08;99877.00;5073529;28;20016;-67
2021/11/30 08:17:09;;;;;;;12.55;8.55;;;;;;;3.25;79.94;99874.56;5090921;28;20036;-68
2021/11/30 08:19:35;;;;;;;12.35;7.72;;;;;;;3.25;78.49;99875.44;5073186;28;20024;-67
2021/11/30 08:22:00;;;;;;;14.73;7.70;;;;;;;3.32;77.99;99878.56;5091176;28;20031;-69
2021/11/30 08:24:26;;;;;;;15.32;8.23;;;;;;;3.31;78.18;99869.75;5090757;28;20020;-67
2021/11/30 08:26:52;;;;;;;13.40;8.25;;;;;;;3.35;78.13;99879.19;5091205;28;20128;-67
2021/11/30 08:29:17;;;;;;;12.77;7.38;;;;;;;3.50;76.67;99882.63;5091014;28;20044;-68
2021/11/30 08:31:43;;;;;;;11.90;8.18;;;;;;;3.49;76.94;99887.09;5091156;28;20070;-68
2021/11/30 08:34:08;;;;;;;11.05;7.22;;;;;;;3.39;77.85;99877.19;5091611;28;20036;-69
2021/11/30 08:36:34;;;;;;;14.25;7.95;;;;;;;3.51;76.67;99882.53;5090999;28;20016;-69
2021/11/30 08:39:00;;;;;;;9.68;7.45;;;;;;;3.73;75.73;99893.41;5090842;28;20039;-68
2021/11/30 08:41:25;;;;;;;11.65;7.53;;;;;;;3.62;76.42;99898.59;5091002;28;20016;-69
2021/11/30 08:43:51;;;;;;;16.20;8.15;;;;;;;3.70;75.99;99898.06;5073238;28;20032;-69
2021/11/30 08:46:16;;;;;;;11.95;8.00;;;;;;;3.64;76.81;99901.16;5091101;28;20043;-69
2021/11/30 08:48:42;;;;;;;11.90;8.40;;;;;;;3.68;76.38;99902.63;5090694;28;20110;-68
2021/11/30 08:51:08;;;;;;;12.27;7.72;;;;;;;3.86;74.76;99901.41;5073187;28;20039;-69
2021/11/30 08:53:35;;;;;;;15.27;8.68;;;;;;;3.84;74.66;99906.81;5091072;28;20043;-69
2021/11/30 08:56:01;;;;;;;11.15;7.32;;;;;;;3.90;74.77;99909.03;5091184;28;20057;-68
2021/11/30 08:58:27;;;;;;;10.65;7.53;;;;;;;3.99;73.73;99913.75;5091003;28;20023;-69
2021/11/30 09:00:53;;;;;;;11.65;7.63;;;;;;;3.97;73.85;99904.19;5091114;28;20027;-69
2021/11/30 09:03:19;;;;;;;18.25;8.77;;;;;;;4.00;74.20;99907.47;5091078;28;20024;-68
2021/11/30 09:05:44;;;;;;;10.18;8.15;;;;;;;4.14;72.55;99917.16;5090846;28;20035;-69
2021/11/30 09:08:11;;;;;;;12.88;7.95;;;;;;;4.00;73.55;99910.13;5090889;28;20030;-68
2021/11/30 09:10:36;;;;;;;13.35;8.10;;;;;;;3.92;74.11;99906.28;5088787;28;20101;-68
2021/11/30 09:13:02;;;;;;;11.75;7.93;;;;;;;4.02;73.67;99910.88;5090868;28;20461;-69
2021/11/30 09:15:28;;;;;;;11.50;7.75;;;;;;;4.12;73.47;99911.97;5090726;28;20103;-68
2021/11/30 09:17:57;;;;;;;10.45;7.13;;;;;;;4.26;73.00;99900.41;5090864;28;20376;-69
2021/11/30 09:20:25;;;;;;;10.65;7.15;;;;;;;4.25;72.52;99898.69;5090868;28;20107;-70
2021/11/30 09:22:51;;;;;;;11.07;7.60;;;;;;;4.41;71.05;99909.94;5072156;28;20525;-70
2021/11/30 09:25:17;;;;;;;12.27;8.48;;;;;;;4.37;71.60;99904.03;5072475;28;20016;-70
2021/11/30 09:27:43;;;;;;;14.60;8.55;;;;;;;4.44;70.90;99915.06;5091093;28;20054;-71
2021/11/30 09:30:11;;;;;;;14.98;8.70;;;;;;;4.43;70.93;99908.06;5073036;28;20113;-69
2021/11/30 09:32:39;;;;;;;10.85;7.47;;;;;;;4.54;69.98;99910.78;5090858;28;20024;-70
2021/11/30 09:35:07;;;;;;;14.27;9.15;;;;;;;4.52;69.68;99892.31;5090628;28;20051;-69
2021/11/30 09:37:37;;;;;;;11.40;8.13;;;;;;;4.42;70.90;99893.09;5088741;28;20069;-70
2021/11/30 09:40:03;;;;;;;12.25;7.85;;;;;;;4.42;71.59;99898.41;5070479;28;20032;-70
2021/11/30 09:42:29;;;;;;;10.52;7.38;;;;;;;4.49;71.07;99900.50;5090663;28;20104;-69
2021/11/30 09:44:55;;;;;;;12.50;7.82;;;;;;;4.55;70.26;99897.41;5090684;28;20507;-69
2021/11/30 09:47:21;;;;;;;9.05;6.50;;;;;;;4.61;68.57;99902.31;5090592;28;20040;-70
2021/11/30 09:49:47;;;;;;;9.00;7.35;;;;;;;4.61;68.99;99889.03;5090787;28;20043;-70
2021/11/30 09:52:13;;;;;;;10.10;6.78;;;;;;;4.59;69.46;99882.13;5090851;28;20020;-70
2021/11/30 09:54:38;;;;;;;14.40;8.55;;;;;;;4.59;69.77;99874.16;5072908;28;20028;-70
2021/11/30 09:57:04;;;;;;;10.43;7.43;;;;;;;4.68;69.51;99879.66;5090869;28;20101;-70
2021/11/30 09:59:30;;;;;;;10.20;7.18;;;;;;;4.67;69.57;99877.09;5092483;28;20023;-71
2021/11/30 10:01:55;;;;;;;13.45;8.10;;;;;;;4.94;67.81;99867.19;5076133;28;20024;-69
2021/11/30 10:04:21;;;;;;;11.15;8.60;;;;;;;4.92;67.93;99861.13;5094287;28;20531;-70
2021/11/30 10:06:47;;;;;;;10.90;7.25;;;;;;;5.02;66.63;99861.31;5076110;28;20123;-69
2021/11/30 10:09:32;;;;;;;11.55;7.20;;;;;;;5.07;66.58;99868.00;5094509;28;20035;-70
2021/11/30 10:12:03;;;;;;;9.88;6.78;;;;;;;5.00;67.18;99858.75;5094128;28;20026;-70
2021/11/30 10:14:35;;;;;;;9.60;6.35;;;;;;;5.17;66.54;99861.06;5094222;28;20016;-70
2021/11/30 10:17:19;;;;;;;9.88;7.00;;;;;;;5.28;65.66;99860.25;5094139;28;20024;-69
2021/11/30 10:20:01;;;;;;;9.55;6.35;;;;;;;5.46;63.90;99869.53;5092971;28;20024;-70
2021/11/30 10:22:53;;;;;;;8.00;5.95;;;;;;;5.35;64.31;99857.03;5091694;28;20590;-70
2021/11/30 10:25:25;;;;;;;8.00;6.10;;;;;;;5.31;64.35;99855.56;5088201;28;20032;-70
2021/11/30 10:28:05;;;;;;;8.65;6.07;;;;;;;5.52;63.29;99851.34;5091919;28;20055;-68
2021/11/30 10:30:35;;;;;;;10.25;6.18;;;;;;;5.70;62.20;99835.78;5094072;28;20782;-70
2021/11/30 10:33:06;;;;;;;9.50;5.75;;;;;;;5.64;62.99;99852.22;5075674;28;20499;-69
2021/11/30 10:35:32;;;;;;;8.82;6.22;;;;;;;5.62;62.70;99843.50;5092854;28;20031;-70
2021/11/30 10:38:00;;;;;;;10.38;6.25;;;;;;;5.58;62.37;99839.38;5093158;28;20145;-70
2021/11/30 10:40:28;;;;;;;8.65;6.32;;;;;;;5.56;62.28;99842.16;5093041;28;20020;-71
2021/11/30 10:42:56;;;;;;;7.72;5.65;;;;;;;5.58;62.07;99845.53;5093038;28;20035;-70
2021/11/30 10:45:26;;;;;;;8.65;6.20;;;;;;;5.56;63.01;99836.84;5093430;28;20020;-69
2021/11/30 10:47:52;;;;;;;7.57;5.97;;;;;;;5.58;62.16;99842.88;5091055;28;20107;-70
2021/11/30 10:50:25;;;;;;;8.80;5.53;;;;;;;5.54;62.34;99821.94;5093311;28;20567;-70
2021/11/30 10:52:52;;;;;;;7.25;5.05;;;;;;;5.51;62.83;99828.34;5093535;28;20024;-69
2021/11/30 10:55:19;;;;;;;7.57;5.68;;;;;;;5.48;63.06;99819.75;5075031;28;20385;-70
2021/11/30 10:57:47;;;;;;;8.10;5.55;;;;;;;5.62;61.72;99814.25;5093210;28;20036;-70
2021/11/30 11:00:23;;;;;;;8.13;5.30;;;;;;;5.64;61.84;99814.97;5093408;28;20059;-71
2021/11/30 11:05:34;;;;;;;7.10;4.32;;;;;;;5.80;62.05;99813.69;5090729;28;20488;-70
2021/11/30 11:08:10;;;;;;;7.45;5.65;;;;;;;5.96;60.56;99803.59;5091074;28;20085;-70
2021/11/30 11:10:38;;;;;;;6.68;5.00;;;;;;;5.96;60.37;99802.75;5091867;28;20050;-70
2021/11/30 11:13:26;;;;;;;6.05;5.05;;;;;;;6.01;60.67;99809.44;5092921;28;20020;-70
2021/11/30 11:16:04;;;;;;;8.68;5.13;;;;;;;6.03;60.53;99802.16;5091486;28;20094;-70
2021/11/30 11:18:35;;;;;;;8.18;5.43;;;;;;;6.11;59.56;99791.78;5092894;28;20028;-70
2021/11/30 11:21:34;;;;;;;8.80;5.30;;;;;;;6.04;60.19;99785.25;5092757;28;20415;-70
2021/11/30 11:24:14;;;;;;;10.27;5.45;;;;;;;6.01;59.92;99793.47;5057371;28;20047;-69
2021/11/30 11:26:43;;;;;;;6.35;4.90;;;;;;;6.01;59.75;99776.63;5074181;28;20074;-69
2021/11/30 11:29:12;;;;;;;8.52;5.22;;;;;;;5.99;59.47;99768.75;5092433;28;20082;-70
2021/11/30 11:31:41;;;;;;;6.63;4.78;;;;;;;6.06;59.28;99769.16;5092538;28;20027;-70
2021/11/30 11:34:09;;;;;;;7.30;5.30;;;;;;;6.05;59.07;99767.44;5092612;28;20028;-70
2021/11/30 11:36:35;;;;;;;7.85;5.50;;;;;;;6.08;59.90;99769.84;5074132;28;20024;-71
2021/11/30 11:39:02;;;;;;;8.35;5.70;;;;;;;6.07;60.81;99776.16;5074372;28;20073;-70
2021/11/30 11:41:30;;;;;;;8.05;4.90;;;;;;;6.09;60.99;99776.88;5092444;28;20028;-70
2021/11/30 11:43:58;;;;;;;9.52;6.00;;;;;;;6.26;59.66;99779.91;5092253;28;20019;-70
2021/11/30 11:46:25;;;;;;;7.35;5.78;;;;;;;6.14;59.76;99777.38;5092223;28;20035;-70
2021/11/30 11:48:57;;;;;;;8.75;5.60;;;;;;;6.22;59.00;99772.28;5092551;28;20028;-70